createdAt,value
2022-09-05T00:02:03.469Z,14.33
2022-09-05T00:07:31.103Z,14.29
2022-09-05T00:12:42.702Z,14.22
2022-09-05T00:19:03.879Z,14.16
2022-09-05T00:24:32.277Z,14.09
2022-09-05T00:29:16.274Z,14.04
2022-09-05T00:34:47.756Z,14.00
2022-09-05T00:40:17.962Z,14.00
2022-09-05T00:45:25.283Z,13.92
2022-09-05T00:50:43.117Z,13.78
2022-09-05T00:56:15.960Z,13.61
2022-09-05T01:01:38.734Z,13.55
2022-09-05T01:07:09.407Z,13.61
2022-09-05T01:12:48.546Z,13.77
2022-09-05T01:18:00.377Z,13.71
2022-09-05T01:23:29.986Z,13.61
2022-09-05T01:29:18.449Z,13.52
2022-09-05T01:34:54.352Z,13.43
2022-09-05T01:40:26.348Z,13.36
2022-09-05T01:45:57.035Z,13.25
2022-09-05T01:51:42.161Z,13.21
2022-09-05T01:56:49.893Z,13.15
2022-09-05T02:02:23.811Z,13.09
2022-09-05T02:08:16.090Z,13.00
2022-09-05T02:13:33.825Z,12.95
2022-09-05T02:19:09.666Z,12.85
2022-09-05T02:24:23.992Z,12.81
2022-09-05T02:29:36.151Z,12.77
2022-09-05T02:34:50.924Z,12.74
2022-09-05T02:45:04.365Z,12.80
2022-09-05T02:46:04.062Z,12.80
2022-09-05T02:55:17.861Z,12.81
2022-09-05T02:57:44.999Z,12.81
2022-09-05T03:02:30.217Z,12.75
2022-09-05T03:07:50.214Z,12.65
2022-09-05T03:13:01.463Z,12.64
2022-09-05T03:18:37.324Z,12.62
2022-09-05T03:24:00.604Z,12.60
2022-09-05T03:29:14.543Z,12.55
2022-09-05T03:34:47.250Z,12.57
2022-09-05T03:40:16.817Z,12.57
2022-09-05T03:45:37.772Z,12.57
2022-09-05T03:57:07.682Z,12.57
2022-09-05T03:57:28.307Z,12.64
2022-09-05T04:07:04.991Z,12.66
2022-09-05T04:08:15.119Z,12.63
2022-09-05T04:13:36.898Z,12.62
2022-09-05T04:18:48.798Z,12.64
2022-09-05T04:24:12.881Z,12.64
2022-09-05T04:29:39.590Z,12.67
2022-09-05T04:35:10.456Z,12.67
2022-09-05T04:40:32.974Z,12.60
2022-09-05T04:45:51.436Z,12.61
2022-09-05T04:51:08.297Z,12.64
2022-09-05T04:56:20.354Z,12.66
2022-09-05T05:06:00.769Z,12.73
2022-09-05T05:07:22.829Z,12.89
2022-09-05T05:17:59.035Z,13.10
2022-09-05T05:18:38.644Z,13.35
2022-09-05T05:23:52.878Z,13.63
2022-09-05T05:29:19.559Z,13.94
2022-09-05T05:34:30.313Z,14.26
2022-09-05T05:39:36.894Z,14.62
2022-09-05T05:44:39.106Z,15.00
2022-09-05T05:49:59.001Z,15.43
2022-09-05T05:55:50.353Z,15.90
2022-09-05T06:00:53.289Z,16.30
2022-09-05T06:06:25.715Z,16.55
2022-09-05T06:14:58.708Z,16.73
2022-09-05T06:17:28.096Z,16.87
2022-09-05T06:22:59.667Z,17.03
2022-09-05T06:28:44.814Z,17.17
2022-09-05T06:33:58.311Z,17.33
2022-09-05T06:39:11.208Z,17.39
2022-09-05T06:44:45.100Z,17.44
2022-09-05T06:50:26.857Z,17.56
2022-09-05T06:56:11.055Z,17.78
2022-09-05T07:01:44.758Z,18.21
2022-09-05T07:07:09.937Z,18.71
2022-09-05T07:12:28.649Z,19.00
2022-09-05T07:18:08.642Z,19.17
2022-09-05T07:23:46.062Z,19.29
2022-09-05T07:28:52.825Z,19.44
2022-09-05T07:34:21.276Z,19.66
2022-09-05T07:39:29.603Z,19.87
2022-09-05T07:44:38.791Z,20.15
2022-09-05T07:49:56.585Z,20.36
2022-09-05T07:57:06.381Z,20.70
2022-09-05T08:00:52.874Z,20.99
2022-09-05T08:05:59.490Z,21.20
2022-09-05T08:11:24.277Z,21.31
2022-09-05T08:16:28.225Z,21.58
2022-09-05T08:21:51.944Z,21.85
2022-09-05T08:27:18.218Z,22.10
2022-09-05T08:32:46.322Z,22.36
2022-09-05T08:37:51.841Z,22.53
2022-09-05T08:45:35.157Z,22.59
2022-09-05T08:49:36.470Z,22.84
2022-09-05T08:55:21.680Z,23.04
2022-09-05T09:00:24.681Z,23.19
2022-09-05T09:05:56.667Z,23.38
2022-09-05T09:11:05.482Z,23.48
2022-09-05T09:16:25.692Z,23.63
2022-09-05T09:21:42.606Z,23.82
2022-09-05T09:27:04.803Z,23.94
2022-09-05T09:32:15.161Z,24.05
2022-09-05T09:37:50.093Z,24.14
2022-09-05T09:43:07.073Z,24.23
2022-09-05T09:48:30.408Z,24.27
2022-09-05T09:53:53.309Z,24.32
2022-09-05T09:59:08.687Z,24.53
2022-09-05T10:10:39.166Z,24.59
2022-09-05T10:10:53.065Z,24.60
2022-09-05T10:15:31.302Z,24.73
2022-09-05T10:21:13.899Z,24.90
2022-09-05T10:26:37.258Z,25.05
2022-09-05T10:35:10.271Z,25.20
2022-09-05T10:37:40.450Z,25.24
2022-09-05T10:43:00.998Z,25.31
2022-09-05T10:48:29.741Z,25.52
2022-09-05T10:54:23.973Z,25.75
2022-09-05T11:02:22.883Z,25.90
2022-09-05T11:05:06.309Z,26.01
2022-09-05T11:10:17.420Z,26.20
2022-09-05T11:15:27.303Z,26.38
2022-09-05T11:20:35.069Z,26.34
2022-09-05T11:25:41.019Z,26.34
2022-09-05T11:30:54.715Z,26.39
2022-09-05T11:39:58.279Z,26.42
2022-09-05T11:42:07.193Z,26.47
2022-09-05T11:47:40.944Z,26.53
2022-09-05T11:53:04.932Z,26.51
2022-09-05T11:58:53.808Z,26.59
2022-09-05T12:04:09.993Z,26.75
2022-09-05T12:09:31.903Z,26.88
2022-09-05T12:14:55.025Z,26.95
2022-09-05T12:20:16.766Z,27.07
2022-09-05T12:27:38.153Z,27.02
2022-09-05T12:32:34.447Z,27.03
2022-09-05T12:42:10.308Z,27.09
2022-09-05T12:42:19.956Z,27.03
2022-09-05T12:47:30.250Z,26.95
2022-09-05T12:52:33.754Z,27.06
2022-09-05T13:00:58.506Z,27.10
2022-09-05T13:03:27.836Z,27.21
2022-09-05T13:08:44.040Z,27.21
2022-09-05T13:14:55.027Z,27.33
2022-09-05T13:19:33.997Z,27.39
2022-09-05T13:24:41.478Z,27.32
2022-09-05T13:31:23.260Z,27.09
2022-09-05T13:38:06.158Z,26.86
2022-09-05T13:47:49.776Z,26.57
2022-09-05T13:53:19.524Z,26.51
2022-09-05T13:58:50.992Z,26.49
2022-09-05T14:09:59.965Z,26.68
2022-09-05T14:15:09.432Z,26.71
2022-09-05T14:20:30.682Z,26.81
2022-09-05T14:25:44.277Z,26.78
2022-09-05T14:32:53.095Z,26.71
2022-09-05T14:37:53.650Z,26.75
2022-09-05T14:42:15.839Z,26.91
2022-09-05T14:47:36.382Z,27.09
2022-09-05T14:52:43.431Z,27.21
2022-09-05T15:02:46.439Z,27.18
2022-09-05T15:12:14.023Z,27.26
2022-09-05T15:14:38.466Z,27.27
2022-09-05T15:19:49.373Z,27.30
2022-09-05T15:25:22.641Z,27.23
2022-09-05T15:30:36.539Z,27.10
2022-09-05T15:35:43.443Z,27.04
2022-09-05T15:40:45.151Z,26.91
2022-09-05T15:45:50.070Z,26.79
2022-09-05T15:50:55.424Z,26.66
2022-09-05T15:56:18.163Z,26.55
2022-09-05T16:01:35.868Z,26.58
2022-09-05T16:10:28.588Z,26.67
2022-09-05T16:12:43.958Z,26.79
2022-09-05T16:24:58.092Z,26.96
2022-09-05T16:30:02.006Z,26.97
2022-09-05T16:35:08.109Z,27.06
2022-09-05T16:40:25.612Z,27.24
2022-09-05T16:45:47.571Z,27.44
2022-09-05T16:51:13.246Z,27.42
2022-09-05T16:56:23.567Z,27.25
2022-09-05T17:01:54.691Z,26.99
2022-09-05T17:07:21.299Z,26.73
2022-09-05T17:12:31.350Z,26.50
2022-09-05T17:18:22.732Z,26.24
2022-09-05T17:28:01.149Z,25.96
2022-09-05T17:29:32.868Z,25.61
2022-09-05T17:34:20.912Z,25.26
2022-09-05T17:39:44.920Z,24.92
2022-09-05T17:44:59.874Z,24.59
2022-09-05T17:50:33.086Z,24.16
2022-09-05T17:55:34.910Z,23.75
2022-09-05T18:00:44.078Z,23.32
2022-09-05T18:06:01.073Z,22.91
2022-09-05T18:11:14.011Z,22.51
2022-09-05T18:16:42.136Z,22.15
2022-09-05T18:22:21.555Z,21.79
2022-09-05T18:28:03.373Z,21.48
2022-09-05T18:33:53.593Z,21.17
2022-09-05T18:38:49.960Z,20.85
2022-09-05T18:44:20.377Z,20.61
2022-09-05T18:50:24.179Z,20.33
2022-09-05T18:56:10.575Z,20.07
2022-09-05T19:00:24.666Z,19.85
2022-09-05T19:05:46.001Z,19.65
2022-09-05T19:10:52.392Z,19.49
2022-09-05T19:16:42.682Z,19.32
2022-09-05T19:21:33.506Z,19.17
2022-09-05T19:26:35.524Z,19.03
2022-09-05T19:36:49.198Z,18.90
2022-09-05T19:37:26.102Z,18.85
2022-09-05T19:47:37.696Z,18.92
2022-09-05T19:48:18.039Z,18.96
2022-09-05T19:53:21.070Z,19.01
2022-09-05T19:58:24.552Z,19.16
2022-09-05T20:03:26.153Z,19.22
2022-09-05T20:08:34.199Z,19.26
2022-09-05T20:13:35.787Z,19.12
2022-09-05T20:18:42.718Z,19.04
2022-09-05T20:23:49.220Z,18.94
2022-09-05T20:29:01.309Z,18.80
2022-09-05T20:34:56.789Z,18.88
2022-09-05T20:43:32.631Z,18.81
2022-09-05T20:45:05.037Z,18.63
2022-09-05T20:54:06.322Z,18.51
2022-09-05T20:55:44.868Z,18.40
2022-09-05T21:01:20.299Z,18.39
2022-09-05T21:06:33.755Z,18.43
2022-09-05T21:11:35.975Z,18.33
2022-09-05T21:16:45.274Z,18.30
2022-09-05T21:22:05.028Z,18.22
2022-09-05T21:27:15.440Z,18.12
2022-09-05T21:32:18.502Z,18.01
2022-09-05T21:37:21.424Z,17.85
2022-09-05T21:44:37.885Z,17.68
2022-09-05T21:47:53.178Z,17.52
2022-09-05T21:52:58.977Z,17.40
2022-09-05T21:59:27.447Z,17.27
2022-09-05T22:03:40.200Z,17.15
2022-09-05T22:08:42.639Z,17.09
2022-09-05T22:14:04.173Z,17.04
2022-09-05T22:19:05.745Z,17.00
2022-09-05T22:24:11.292Z,16.94
2022-09-05T22:29:16.390Z,16.88
2022-09-05T22:34:17.951Z,16.82
2022-09-05T22:39:27.412Z,16.73
2022-09-05T22:44:39.974Z,16.61
2022-09-05T22:49:41.533Z,16.52
2022-09-05T22:54:43.095Z,16.41
2022-09-05T22:59:44.638Z,16.32
2022-09-05T23:04:46.189Z,16.23
2022-09-05T23:09:47.833Z,16.15
2022-09-05T23:14:49.426Z,16.09
2022-09-05T23:19:50.977Z,16.04
2022-09-05T23:24:52.564Z,15.98
2022-09-05T23:29:54.132Z,15.93
2022-09-05T23:34:55.688Z,15.89
2022-09-05T23:39:57.929Z,15.82
2022-09-05T23:44:59.515Z,15.76
2022-09-05T23:50:01.080Z,15.72
2022-09-05T23:55:02.663Z,15.67
